Time;durP1;ratioP1;P1;durP2;ratioP2;P2;SDS_P1;SDS_P2;PMS_P1;PMS_P2;Temp;Humidity;BMP_temperature;BMP_pressure;BME280_temperature;BME280_humidity;BME280_pressure;Samples;Min_cycle;Max_cycle;Signal;HPM_P1;HPM_P2
2022/10/07 00:00:46;;;;;;;7.88;2.13;;;;;;;;;;5017406;28;20030;-24
2022/10/07 00:03:13;;;;;;;5.90;2.17;;;;;;;;;;5016054;28;20443;-22
2022/10/07 00:05:39;;;;;;;6.03;2.13;;;;;;;;;;5017397;28;20097;-22
2022/10/07 00:08:06;;;;;;;11.05;2.42;;;;;;;;;;5017105;28;20022;-22
2022/10/07 00:10:32;;;;;;;6.85;2.50;;;;;;;;;;5017329;28;20045;-22
2022/10/07 00:13:01;;;;;;;6.80;2.05;;;;;;;;;;5016884;28;20088;-21
2022/10/07 00:15:27;;;;;;;7.65;2.10;;;;;;;;;;5017225;28;20030;-21
2022/10/07 00:17:53;;;;;;;10.35;2.70;;;;;;;;;;5016885;28;20065;-22
2022/10/07 00:20:19;;;;;;;11.35;2.00;;;;;;;;;;5017038;28;20332;-21
2022/10/07 00:22:45;;;;;;;10.70;2.10;;;;;;;;;;5016658;28;20145;-22
2022/10/07 00:25:11;;;;;;;11.25;2.40;;;;;;;;;;5016765;28;20034;-23
2022/10/07 00:27:37;;;;;;;8.55;2.30;;;;;;;;;;5016686;28;20018;-25
2022/10/07 00:30:04;;;;;;;12.32;2.33;;;;;;;;;;5016922;28;20354;-22
2022/10/07 00:32:30;;;;;;;6.55;2.15;;;;;;;;;;5016562;28;20034;-24
2022/10/07 00:34:56;;;;;;;5.80;2.47;;;;;;;;;;5016518;28;20030;-22
2022/10/07 00:37:22;;;;;;;5.55;2.20;;;;;;;;;;5016795;28;20109;-22
2022/10/07 00:39:48;;;;;;;6.60;2.33;;;;;;;;;;5016338;28;20049;-22
2022/10/07 00:42:15;;;;;;;7.97;3.08;;;;;;;;;;5016392;28;20033;-21
2022/10/07 00:44:42;;;;;;;5.50;2.47;;;;;;;;;;5016379;28;20038;-25
2022/10/07 00:47:27;;;;;;;9.38;2.67;;;;;;;;;;5016643;28;20022;-25
2022/10/07 00:49:56;;;;;;;9.55;2.20;;;;;;;;;;5016238;28;20037;-22
2022/10/07 00:52:23;;;;;;;8.35;2.00;;;;;;;;;;5016119;28;20101;-22
2022/10/07 00:54:52;;;;;;;8.95;3.40;;;;;;;;;;5031752;28;20451;-21
2022/10/07 00:57:20;;;;;;;10.30;3.63;;;;;;;;;;5016714;28;20073;-23
2022/10/07 00:59:46;;;;;;;9.38;1.95;;;;;;;;;;5016050;28;20109;-23
2022/10/07 01:02:12;;;;;;;8.95;2.83;;;;;;;;;;5015979;28;20032;-22
2022/10/07 01:04:39;;;;;;;8.57;2.20;;;;;;;;;;5015873;28;20046;-25
2022/10/07 01:07:05;;;;;;;8.90;2.80;;;;;;;;;;5015976;28;20057;-22
2022/10/07 01:09:31;;;;;;;6.72;2.50;;;;;;;;;;5015929;28;20034;-22
2022/10/07 01:12:10;;;;;;;6.75;2.65;;;;;;;;;;5016057;28;20029;-22
2022/10/07 01:14:37;;;;;;;7.25;1.92;;;;;;;;;;5016098;28;20109;-22
2022/10/07 01:17:23;;;;;;;7.88;2.67;;;;;;;;;;5016033;28;20053;-22
2022/10/07 01:19:50;;;;;;;14.05;1.90;;;;;;;;;;5016226;28;20026;-22
2022/10/07 01:22:36;;;;;;;4.40;2.00;;;;;;;;;;5015637;28;20086;-21
2022/10/07 01:25:12;;;;;;;10.70;2.85;;;;;;;;;;5015671;28;20022;-22
2022/10/07 01:27:39;;;;;;;8.10;2.55;;;;;;;;;;5015623;28;20097;-22
2022/10/07 01:30:06;;;;;;;8.80;2.00;;;;;;;;;;5015553;28;20463;-22
2022/10/07 01:32:36;;;;;;;10.88;2.05;;;;;;;;;;5016039;28;20354;-22
2022/10/07 01:35:04;;;;;;;7.93;2.05;;;;;;;;;;5015719;28;20100;-22
2022/10/07 01:37:34;;;;;;;7.70;2.15;;;;;;;;;;5015437;28;20034;-23
2022/10/07 01:40:02;;;;;;;5.90;1.98;;;;;;;;;;5015626;28;20054;-25
2022/10/07 01:42:29;;;;;;;8.93;2.47;;;;;;;;;;5015282;28;20018;-21
2022/10/07 01:44:57;;;;;;;4.65;2.15;;;;;;;;;;5015331;28;20446;-25
2022/10/07 01:47:25;;;;;;;4.10;2.00;;;;;;;;;;5015569;28;20021;-22
2022/10/07 01:49:51;;;;;;;8.43;2.00;;;;;;;;;;5015248;28;20072;-22
2022/10/07 01:52:31;;;;;;;6.13;2.22;;;;;;;;;;5015158;28;20026;-27
2022/10/07 01:55:12;;;;;;;7.07;2.37;;;;;;;;;;5015560;28;20033;-22
2022/10/07 01:57:42;;;;;;;4.05;1.77;;;;;;;;;;5015483;28;20030;-28
2022/10/07 02:00:11;;;;;;;7.10;2.10;;;;;;;;;;5015557;28;20096;-21
2022/10/07 02:02:56;;;;;;;10.57;2.70;;;;;;;;;;5015011;28;20042;-22
2022/10/07 02:05:28;;;;;;;3.90;2.22;;;;;;;;;;5015302;28;20050;-22
2022/10/07 02:08:05;;;;;;;6.18;2.17;;;;;;;;;;5015043;28;20437;-24
2022/10/07 02:10:34;;;;;;;5.60;2.08;;;;;;;;;;5014977;28;20041;-22
2022/10/07 02:13:20;;;;;;;5.82;2.45;;;;;;;;;;5014888;28;20058;-22
2022/10/07 02:15:46;;;;;;;6.10;2.20;;;;;;;;;;4984991;28;20046;-21
2022/10/07 02:18:14;;;;;;;5.97;2.10;;;;;;;;;;5015138;28;20060;-22
2022/10/07 02:20:43;;;;;;;7.40;2.10;;;;;;;;;;5015021;28;20038;-24
2022/10/07 02:23:11;;;;;;;5.88;2.00;;;;;;;;;;5015010;28;20022;-22
2022/10/07 02:25:45;;;;;;;9.15;2.88;;;;;;;;;;5015788;28;20033;-23
2022/10/07 02:28:12;;;;;;;9.18;2.28;;;;;;;;;;5021662;28;20103;-22
2022/10/07 02:30:39;;;;;;;4.05;1.77;;;;;;;;;;5021292;28;20040;-23
2022/10/07 02:33:06;;;;;;;4.57;1.52;;;;;;;;;;5036777;28;20462;-22
2022/10/07 02:35:36;;;;;;;7.13;1.88;;;;;;;;;;5021267;28;20029;-22
2022/10/07 02:38:05;;;;;;;5.37;2.07;;;;;;;;;;5021921;28;20029;-26
2022/10/07 02:40:34;;;;;;;6.38;2.33;;;;;;;;;;5021192;28;20113;-22
2022/10/07 02:43:12;;;;;;;3.13;1.70;;;;;;;;;;5021101;28;20211;-21
2022/10/07 02:45:42;;;;;;;3.05;1.90;;;;;;;;;;5021470;28;20037;-21
2022/10/07 02:48:08;;;;;;;4.78;2.05;;;;;;;;;;5021233;28;20088;-22
2022/10/07 02:50:37;;;;;;;3.22;1.83;;;;;;;;;;5021688;28;20034;-22
2022/10/07 02:53:04;;;;;;;11.07;2.28;;;;;;;;;;5021318;28;20029;-23
2022/10/07 02:55:31;;;;;;;4.32;1.65;;;;;;;;;;5021347;28;20029;-24
2022/10/07 02:57:58;;;;;;;6.88;2.00;;;;;;;;;;5021096;28;20105;-21
2022/10/07 03:00:25;;;;;;;8.30;2.30;;;;;;;;;;5021003;28;20029;-21
2022/10/07 03:02:53;;;;;;;4.30;1.95;;;;;;;;;;5020909;28;20038;-21
2022/10/07 03:05:20;;;;;;;5.57;2.80;;;;;;;;;;5021329;28;20434;-21
2022/10/07 03:07:52;;;;;;;4.03;1.65;;;;;;;;;;5020967;28;20156;-24
2022/10/07 03:10:18;;;;;;;3.88;1.80;;;;;;;;;;5021265;28;20037;-24
2022/10/07 03:12:45;;;;;;;4.60;1.80;;;;;;;;;;5020860;28;20030;-22
2022/10/07 03:15:11;;;;;;;3.25;1.48;;;;;;;;;;5021203;28;20030;-21
2022/10/07 03:17:38;;;;;;;5.00;1.92;;;;;;;;;;5020860;28;20048;-22
2022/10/07 03:20:05;;;;;;;5.78;2.78;;;;;;;;;;5020839;28;20065;-23
2022/10/07 03:22:31;;;;;;;4.82;2.13;;;;;;;;;;5020799;28;20120;-21
2022/10/07 03:24:57;;;;;;;4.53;1.80;;;;;;;;;;5020792;28;20045;-24
2022/10/07 03:27:23;;;;;;;2.85;1.55;;;;;;;;;;5021060;28;20469;-21
2022/10/07 03:29:49;;;;;;;4.03;1.63;;;;;;;;;;5020745;28;20021;-22
2022/10/07 03:32:15;;;;;;;10.32;2.17;;;;;;;;;;5020962;28;20105;-25
2022/10/07 03:34:41;;;;;;;10.75;2.40;;;;;;;;;;5021255;28;20048;-22
2022/10/07 03:37:08;;;;;;;8.48;1.50;;;;;;;;;;5019769;28;20030;-22
2022/10/07 03:39:34;;;;;;;3.33;1.85;;;;;;;;;;5016957;28;20058;-21
2022/10/07 03:42:00;;;;;;;4.82;1.70;;;;;;;;;;5017767;28;20030;-21
2022/10/07 03:44:26;;;;;;;4.07;1.85;;;;;;;;;;5017794;28;20418;-21
2022/10/07 03:46:52;;;;;;;4.90;1.90;;;;;;;;;;5017484;28;20447;-21
2022/10/07 03:49:19;;;;;;;6.00;2.28;;;;;;;;;;5017638;28;20336;-22
2022/10/07 03:51:45;;;;;;;10.23;3.13;;;;;;;;;;5017294;28;20409;-23
2022/10/07 03:54:12;;;;;;;5.63;2.20;;;;;;;;;;5017264;28;20104;-22
2022/10/07 03:56:38;;;;;;;7.85;1.80;;;;;;;;;;5017226;28;20037;-22
2022/10/07 03:59:04;;;;;;;4.82;1.90;;;;;;;;;;5017408;28;20022;-23
2022/10/07 04:01:30;;;;;;;6.45;2.47;;;;;;;;;;5017405;28;20359;-26
2022/10/07 04:03:58;;;;;;;5.57;1.60;;;;;;;;;;5016825;28;20383;-25
2022/10/07 04:06:25;;;;;;;4.75;1.65;;;;;;;;;;5017449;28;20022;-22
2022/10/07 04:08:52;;;;;;;4.68;2.13;;;;;;;;;;5017338;28;20053;-22
2022/10/07 04:11:18;;;;;;;6.55;1.80;;;;;;;;;;5017164;28;20112;-24
2022/10/07 04:13:44;;;;;;;6.45;1.65;;;;;;;;;;5016874;28;20083;-24
2022/10/07 04:16:11;;;;;;;3.45;1.88;;;;;;;;;;5016810;28;20045;-22
2022/10/07 04:18:40;;;;;;;3.67;1.63;;;;;;;;;;5016871;28;20034;-24
2022/10/07 04:21:07;;;;;;;6.80;1.60;;;;;;;;;;5032251;28;20038;-23
2022/10/07 04:23:34;;;;;;;5.13;1.60;;;;;;;;;;5016716;28;20045;-22
2022/10/07 04:26:00;;;;;;;5.70;1.80;;;;;;;;;;5016523;28;20018;-24
2022/10/07 04:28:26;;;;;;;4.18;1.40;;;;;;;;;;5016325;28;20041;-22
2022/10/07 04:30:53;;;;;;;8.10;1.70;;;;;;;;;;5016558;28;20037;-22
2022/10/07 04:33:20;;;;;;;3.53;2.35;;;;;;;;;;5016222;28;20068;-23
2022/10/07 04:35:47;;;;;;;4.00;1.52;;;;;;;;;;5016264;28;20030;-22
2022/10/07 04:38:17;;;;;;;4.40;1.67;;;;;;;;;;5016461;28;20064;-24
2022/10/07 04:40:46;;;;;;;2.97;1.25;;;;;;;;;;5016510;28;20030;-21
2022/10/07 04:43:21;;;;;;;6.65;2.03;;;;;;;;;;5016407;28;20588;-23
2022/10/07 04:45:48;;;;;;;4.88;1.80;;;;;;;;;;5016628;28;20034;-24
2022/10/07 04:48:16;;;;;;;7.93;1.60;;;;;;;;;;5016254;28;20471;-22
2022/10/07 04:50:43;;;;;;;2.45;1.75;;;;;;;;;;5016202;28;20481;-23
2022/10/07 04:53:10;;;;;;;5.80;2.10;;;;;;;;;;5015994;28;20033;-22
2022/10/07 04:55:37;;;;;;;6.00;2.28;;;;;;;;;;5016305;28;20096;-22
2022/10/07 04:58:03;;;;;;;7.38;1.83;;;;;;;;;;5016592;28;20036;-22
2022/10/07 05:00:30;;;;;;;7.18;1.60;;;;;;;;;;5015915;28;20105;-22
2022/10/07 05:02:56;;;;;;;5.07;1.75;;;;;;;;;;5015800;28;20049;-21
2022/10/07 05:05:24;;;;;;;7.55;2.53;;;;;;;;;;5015873;28;20034;-21
2022/10/07 05:07:50;;;;;;;7.20;2.15;;;;;;;;;;5015794;28;20057;-21
2022/10/07 05:10:17;;;;;;;5.93;1.90;;;;;;;;;;5031251;28;20420;-24
2022/10/07 05:12:43;;;;;;;12.45;2.42;;;;;;;;;;5016035;28;20040;-22
2022/10/07 05:15:10;;;;;;;4.97;2.10;;;;;;;;;;5015803;28;20121;-25
2022/10/07 05:17:39;;;;;;;10.98;2.08;;;;;;;;;;5031153;28;20034;-21
2022/10/07 05:20:07;;;;;;;4.53;1.75;;;;;;;;;;5015476;28;20037;-22
2022/10/07 05:22:33;;;;;;;4.15;1.73;;;;;;;;;;5016347;28;20025;-23
2022/10/07 05:24:59;;;;;;;16.48;2.75;;;;;;;;;;5015518;28;20060;-22
2022/10/07 05:27:26;;;;;;;10.18;2.17;;;;;;;;;;5016081;28;20026;-22
2022/10/07 05:29:52;;;;;;;3.60;2.00;;;;;;;;;;5015747;28;20455;-21
2022/10/07 05:32:18;;;;;;;5.45;1.90;;;;;;;;;;5015384;28;20030;-22
2022/10/07 05:34:44;;;;;;;9.07;2.08;;;;;;;;;;5015213;28;20113;-21
2022/10/07 05:37:11;;;;;;;8.38;2.60;;;;;;;;;;5015096;28;20110;-22
2022/10/07 05:39:37;;;;;;;10.38;2.38;;;;;;;;;;5015304;28;20117;-22
2022/10/07 05:42:04;;;;;;;14.05;1.90;;;;;;;;;;5014742;28;20366;-22
2022/10/07 05:44:31;;;;;;;6.00;1.92;;;;;;;;;;5015051;28;20324;-27
2022/10/07 05:46:57;;;;;;;4.05;2.00;;;;;;;;;;5015340;28;20108;-24
2022/10/07 05:49:23;;;;;;;7.93;1.70;;;;;;;;;;5015406;28;20018;-24
2022/10/07 05:51:50;;;;;;;5.47;1.73;;;;;;;;;;5014952;28;20021;-22
2022/10/07 05:54:17;;;;;;;12.60;2.35;;;;;;;;;;5015217;28;20342;-21
2022/10/07 05:56:43;;;;;;;10.25;1.95;;;;;;;;;;5014972;28;20100;-22
2022/10/07 05:59:10;;;;;;;5.93;2.05;;;;;;;;;;5014739;28;20036;-24
2022/10/07 06:01:36;;;;;;;2.67;2.00;;;;;;;;;;5014164;28;20069;-24
2022/10/07 06:04:02;;;;;;;3.80;2.13;;;;;;;;;;5014648;28;20124;-23
2022/10/07 06:06:29;;;;;;;3.90;2.30;;;;;;;;;;5014846;28;20041;-21
2022/10/07 06:13:06;;;;;;;9.68;1.70;;;;;;;;;;5015096;28;20355;-23
2022/10/07 06:14:26;;;;;;;2.90;2.03;;;;;;;;;;5015106;28;20057;-21
2022/10/07 06:16:52;;;;;;;9.80;2.22;;;;;;;;;;5015061;28;20022;-28
2022/10/07 06:19:21;;;;;;;4.35;1.60;;;;;;;;;;5014731;28;20037;-21
2022/10/07 06:21:47;;;;;;;3.65;2.40;;;;;;;;;;5014858;28;20053;-25
2022/10/07 06:24:14;;;;;;;7.53;2.45;;;;;;;;;;5014611;28;20037;-21
2022/10/07 06:26:43;;;;;;;10.43;2.53;;;;;;;;;;5014947;28;20358;-21
2022/10/07 06:29:09;;;;;;;6.07;1.95;;;;;;;;;;5014752;28;20080;-22
2022/10/07 06:31:35;;;;;;;7.93;2.17;;;;;;;;;;5014875;28;20030;-21
2022/10/07 06:34:01;;;;;;;6.85;1.70;;;;;;;;;;5014779;28;20037;-21
2022/10/07 06:36:28;;;;;;;8.23;1.88;;;;;;;;;;5014172;28;20033;-26
2022/10/07 06:38:54;;;;;;;8.15;1.95;;;;;;;;;;5014576;28;20034;-23
2022/10/07 06:41:21;;;;;;;7.95;2.00;;;;;;;;;;5014386;28;20192;-21
2022/10/07 06:43:47;;;;;;;7.55;2.25;;;;;;;;;;5014180;28;20026;-23
2022/10/07 06:46:15;;;;;;;9.48;2.38;;;;;;;;;;5014168;28;20096;-23
2022/10/07 06:48:43;;;;;;;13.88;2.38;;;;;;;;;;5014332;28;20041;-24
2022/10/07 06:51:13;;;;;;;7.20;1.70;;;;;;;;;;5029909;28;20029;-22
2022/10/07 06:53:39;;;;;;;5.68;1.70;;;;;;;;;;5014221;28;20030;-23
2022/10/07 06:56:05;;;;;;;8.35;2.33;;;;;;;;;;5014860;28;20117;-22
2022/10/07 06:58:32;;;;;;;5.03;1.95;;;;;;;;;;5013952;28;20037;-23
2022/10/07 07:00:58;;;;;;;9.90;2.00;;;;;;;;;;5029556;28;20022;-22
2022/10/07 07:03:25;;;;;;;5.97;2.38;;;;;;;;;;5014072;28;20046;-22
2022/10/07 07:05:51;;;;;;;7.03;1.88;;;;;;;;;;5014470;28;20092;-26
2022/10/07 07:08:26;;;;;;;4.30;2.55;;;;;;;;;;5014251;28;20026;-22
2022/10/07 07:10:52;;;;;;;7.90;2.50;;;;;;;;;;5014495;28;20034;-22
2022/10/07 07:13:18;;;;;;;5.95;2.15;;;;;;;;;;5016894;28;20029;-22
2022/10/07 07:15:53;;;;;;;10.95;2.10;;;;;;;;;;5017895;28;20060;-23
2022/10/07 07:18:20;;;;;;;11.00;2.22;;;;;;;;;;5018015;28;20030;-28
2022/10/07 07:20:46;;;;;;;5.60;2.47;;;;;;;;;;5018362;28;20044;-24
2022/10/07 07:23:12;;;;;;;7.32;2.25;;;;;;;;;;5017708;28;20096;-25
2022/10/07 07:25:39;;;;;;;9.57;2.03;;;;;;;;;;5018079;28;20463;-22
2022/10/07 07:28:06;;;;;;;8.05;2.42;;;;;;;;;;5017431;28;20030;-23
2022/10/07 07:30:33;;;;;;;5.57;1.60;;;;;;;;;;5017394;28;20451;-23
2022/10/07 07:32:59;;;;;;;7.95;1.88;;;;;;;;;;5017736;28;20034;-21
2022/10/07 07:35:26;;;;;;;10.43;1.70;;;;;;;;;;5017667;28;20336;-22
2022/10/07 07:37:53;;;;;;;7.95;1.52;;;;;;;;;;5017508;28;20156;-22
2022/10/07 07:40:20;;;;;;;9.40;2.10;;;;;;;;;;5017356;28;20058;-24
2022/10/07 07:42:46;;;;;;;8.13;2.13;;;;;;;;;;5017337;28;20038;-24
2022/10/07 07:45:12;;;;;;;11.00;1.95;;;;;;;;;;5017600;28;20124;-21
2022/10/07 07:47:38;;;;;;;6.78;2.22;;;;;;;;;;5032834;28;20080;-23
2022/10/07 07:50:05;;;;;;;9.20;2.13;;;;;;;;;;5017235;28;20117;-21
2022/10/07 07:52:32;;;;;;;8.50;2.35;;;;;;;;;;5017066;28;20041;-21
2022/10/07 07:54:59;;;;;;;8.35;1.90;;;;;;;;;;5017499;28;20044;-21
2022/10/07 07:57:26;;;;;;;8.35;2.63;;;;;;;;;;5017188;28;20416;-23
2022/10/07 07:59:54;;;;;;;12.10;2.13;;;;;;;;;;5017344;28;20394;-23
2022/10/07 08:02:20;;;;;;;10.20;2.08;;;;;;;;;;5016954;28;20022;-22
2022/10/07 08:04:47;;;;;;;11.05;2.63;;;;;;;;;;5017379;28;20109;-23
2022/10/07 08:07:13;;;;;;;10.82;2.38;;;;;;;;;;5017815;28;20387;-25
2022/10/07 08:09:39;;;;;;;7.60;2.20;;;;;;;;;;5017221;28;20025;-23
2022/10/07 08:12:06;;;;;;;11.60;1.80;;;;;;;;;;5017142;28;20414;-22
2022/10/07 08:14:33;;;;;;;10.18;2.42;;;;;;;;;;5016829;28;20060;-25
2022/10/07 08:16:59;;;;;;;17.88;2.15;;;;;;;;;;5016671;28;20136;-25
2022/10/07 08:19:28;;;;;;;16.42;2.55;;;;;;;;;;5016599;28;20080;-22
2022/10/07 08:21:54;;;;;;;7.72;2.05;;;;;;;;;;5016543;28;20140;-23
2022/10/07 08:24:23;;;;;;;14.27;2.42;;;;;;;;;;5016338;28;20022;-24
2022/10/07 08:26:50;;;;;;;8.98;1.98;;;;;;;;;;5016754;28;20121;-25
2022/10/07 08:29:16;;;;;;;13.93;2.67;;;;;;;;;;5016897;28;20455;-22
2022/10/07 08:31:43;;;;;;;15.32;2.13;;;;;;;;;;5017114;28;20033;-23
2022/10/07 08:34:10;;;;;;;14.32;2.50;;;;;;;;;;5016876;28;20382;-25
2022/10/07 08:36:36;;;;;;;11.68;2.88;;;;;;;;;;5015469;28;20033;-23
2022/10/07 08:39:03;;;;;;;14.18;2.53;;;;;;;;;;5016889;28;20109;-23
2022/10/07 08:41:52;;;;;;;9.07;2.70;;;;;;;;;;5031652;28;20109;-23
2022/10/07 08:44:24;;;;;;;15.73;2.40;;;;;;;;;;5031701;28;20022;-27
2022/10/07 08:46:54;;;;;;;18.25;3.22;;;;;;;;;;5016357;28;20101;-22
2022/10/07 08:49:25;;;;;;;13.27;2.03;;;;;;;;;;5016016;28;20103;-22
2022/10/07 08:51:58;;;;;;;13.82;3.80;;;;;;;;;;5015943;28;20480;-22
2022/10/07 08:54:32;;;;;;;6.35;2.08;;;;;;;;;;5031479;28;20029;-22
2022/10/07 08:57:01;;;;;;;11.73;2.35;;;;;;;;;;5016117;28;20025;-22
2022/10/07 08:59:27;;;;;;;11.98;2.83;;;;;;;;;;5015587;28;20034;-23
2022/10/07 09:01:53;;;;;;;13.57;2.10;;;;;;;;;;5015666;28;20033;-27
2022/10/07 09:04:32;;;;;;;16.77;3.08;;;;;;;;;;5015624;28;20046;-24
2022/10/07 09:07:01;;;;;;;10.38;2.85;;;;;;;;;;5015970;28;20041;-23
2022/10/07 09:09:53;;;;;;;15.27;2.35;;;;;;;;;;5015796;28;20097;-22
2022/10/07 09:12:28;;;;;;;13.00;3.95;;;;;;;;;;5013604;28;20065;-24
2022/10/07 09:14:58;;;;;;;7.85;2.70;;;;;;;;;;5030908;28;20026;-22
2022/10/07 09:17:25;;;;;;;11.93;2.50;;;;;;;;;;5015440;28;20408;-27
2022/10/07 09:19:54;;;;;;;13.55;2.03;;;;;;;;;;5015498;28;20025;-22
2022/10/07 09:22:41;;;;;;;14.30;2.72;;;;;;;;;;5015635;28;20045;-22
2022/10/07 09:25:16;;;;;;;15.02;3.42;;;;;;;;;;5015244;28;20475;-23
2022/10/07 09:27:42;;;;;;;18.67;2.40;;;;;;;;;;5015350;28;20033;-24
2022/10/07 09:30:12;;;;;;;12.60;2.38;;;;;;;;;;5015433;28;20091;-22
2022/10/07 09:32:40;;;;;;;10.68;2.90;;;;;;;;;;5015448;28;20406;-22
2022/10/07 09:35:06;;;;;;;10.82;3.22;;;;;;;;;;5015027;28;20022;-22
2022/10/07 09:37:32;;;;;;;19.52;2.50;;;;;;;;;;5014963;28;20111;-23
2022/10/07 09:40:19;;;;;;;15.73;3.50;;;;;;;;;;5015281;28;20354;-22
2022/10/07 09:42:45;;;;;;;22.92;2.75;;;;;;;;;;5015375;28;20096;-26
2022/10/07 09:45:21;;;;;;;9.85;2.83;;;;;;;;;;5015412;28;20041;-24
2022/10/07 09:47:51;;;;;;;25.00;2.90;;;;;;;;;;5015431;28;20048;-22
2022/10/07 09:50:31;;;;;;;10.32;2.63;;;;;;;;;;5014532;28;20038;-23
2022/10/07 09:52:57;;;;;;;14.00;2.85;;;;;;;;;;5015543;28;20415;-23
2022/10/07 09:55:38;;;;;;;8.45;2.10;;;;;;;;;;5014785;28;20107;-22
2022/10/07 09:58:06;;;;;;;12.20;2.85;;;;;;;;;;5015213;28;20076;-25
2022/10/07 10:00:41;;;;;;;21.00;2.78;;;;;;;;;;5030187;28;20060;-22
2022/10/07 10:03:07;;;;;;;15.23;2.40;;;;;;;;;;5014644;28;20038;-22
2022/10/07 10:05:34;;;;;;;18.50;3.10;;;;;;;;;;5015072;28;20026;-22
2022/10/07 10:08:03;;;;;;;17.73;2.45;;;;;;;;;;5015014;28;20034;-22
2022/10/07 10:10:30;;;;;;;13.30;2.58;;;;;;;;;;5014820;28;20048;-22
2022/10/07 10:12:58;;;;;;;20.77;3.00;;;;;;;;;;5014624;28;20041;-22
2022/10/07 10:15:29;;;;;;;32.00;4.28;;;;;;;;;;5014795;28;20477;-24
2022/10/07 10:17:56;;;;;;;11.07;2.30;;;;;;;;;;5014680;28;20049;-26
2022/10/07 10:20:31;;;;;;;13.27;2.55;;;;;;;;;;5014583;28;20146;-25
2022/10/07 10:22:57;;;;;;;14.10;2.95;;;;;;;;;;5014957;28;20417;-23
2022/10/07 10:28:34;;;;;;;18.73;3.28;;;;;;;;;;5014875;28;20112;-24
2022/10/07 10:31:06;;;;;;;15.50;2.80;;;;;;;;;;5014863;28;20026;-23
2022/10/07 10:33:43;;;;;;;10.10;2.90;;;;;;;;;;5014697;28;20365;-22
2022/10/07 10:36:19;;;;;;;40.97;3.60;;;;;;;;;;5013642;28;20493;-22
2022/10/07 10:38:48;;;;;;;13.50;2.88;;;;;;;;;;5014795;28;20104;-23
2022/10/07 10:41:20;;;;;;;17.08;3.40;;;;;;;;;;5014962;28;20427;-23
2022/10/07 10:44:05;;;;;;;16.45;3.03;;;;;;;;;;5014742;28;20050;-24
2022/10/07 10:46:31;;;;;;;15.73;3.78;;;;;;;;;;5014739;28;20409;-24
2022/10/07 10:49:18;;;;;;;17.98;2.80;;;;;;;;;;5018451;28;20042;-26
2022/10/07 10:52:08;;;;;;;21.38;2.80;;;;;;;;;;5018585;28;20034;-24
2022/10/07 10:54:53;;;;;;;16.25;3.10;;;;;;;;;;5018416;28;20059;-25
2022/10/07 10:57:19;;;;;;;18.63;3.20;;;;;;;;;;5018345;28;20045;-26
2022/10/07 10:59:54;;;;;;;20.92;3.65;;;;;;;;;;5018181;28;20117;-22
2022/10/07 11:02:43;;;;;;;18.23;3.38;;;;;;;;;;5017842;28;20030;-26
2022/10/07 11:05:31;;;;;;;16.92;3.00;;;;;;;;;;5018192;28;20105;-22
2022/10/07 11:08:00;;;;;;;11.15;2.55;;;;;;;;;;5018397;28;20030;-22
2022/10/07 11:10:44;;;;;;;13.02;2.40;;;;;;;;;;5018125;28;20026;-22
2022/10/07 11:13:17;;;;;;;14.23;2.92;;;;;;;;;;5018159;28;20026;-25
2022/10/07 11:15:50;;;;;;;13.10;2.53;;;;;;;;;;5018364;28;20462;-26
2022/10/07 11:18:22;;;;;;;20.95;3.42;;;;;;;;;;5018134;28;20034;-24
2022/10/07 11:20:49;;;;;;;9.52;2.45;;;;;;;;;;5018123;28;20036;-26
2022/10/07 11:23:15;;;;;;;15.35;3.20;;;;;;;;;;5017748;28;20530;-23
2022/10/07 11:25:43;;;;;;;25.77;5.70;;;;;;;;;;5017987;28;20114;-23
2022/10/07 11:28:21;;;;;;;14.60;3.10;;;;;;;;;;5017672;28;20029;-24
2022/10/07 11:31:03;;;;;;;15.95;2.78;;;;;;;;;;5017668;28;20114;-29
2022/10/07 11:33:36;;;;;;;28.90;3.08;;;;;;;;;;5017637;28;20030;-21
2022/10/07 11:36:13;;;;;;;14.38;3.95;;;;;;;;;;5017896;28;20025;-22
2022/10/07 11:38:39;;;;;;;18.77;3.65;;;;;;;;;;5018152;28;20033;-22
2022/10/07 11:41:19;;;;;;;18.20;3.50;;;;;;;;;;5017421;28;20367;-23
2022/10/07 11:43:55;;;;;;;15.75;3.75;;;;;;;;;;5017428;28;20088;-24
2022/10/07 11:46:33;;;;;;;16.50;3.47;;;;;;;;;;5017365;28;20071;-24
2022/10/07 11:49:05;;;;;;;25.13;3.80;;;;;;;;;;5017301;28;20034;-24
2022/10/07 11:51:38;;;;;;;15.95;2.83;;;;;;;;;;5017407;28;20041;-22
2022/10/07 11:54:06;;;;;;;16.05;3.67;;;;;;;;;;5017315;28;20057;-21
2022/10/07 11:56:37;;;;;;;21.27;4.47;;;;;;;;;;5017448;28;20034;-22
2022/10/07 11:59:05;;;;;;;21.48;4.18;;;;;;;;;;5016014;28;20096;-22
2022/10/07 12:01:34;;;;;;;19.63;3.30;;;;;;;;;;5017368;28;20034;-23
2022/10/07 12:04:16;;;;;;;17.73;4.28;;;;;;;;;;5017010;28;20113;-21
2022/10/07 12:07:14;;;;;;;21.25;3.90;;;;;;;;;;5017002;28;20097;-22
2022/10/07 12:09:53;;;;;;;20.85;3.45;;;;;;;;;;4984605;28;20033;-24
2022/10/07 12:12:23;;;;;;;20.90;4.35;;;;;;;;;;5017091;28;20044;-21
2022/10/07 12:15:02;;;;;;;35.65;6.05;;;;;;;;;;5016840;28;20101;-22
2022/10/07 12:17:29;;;;;;;16.85;3.28;;;;;;;;;;5032372;28;20097;-24
2022/10/07 12:20:14;;;;;;;25.48;4.60;;;;;;;;;;5016746;28;20144;-22
2022/10/07 12:22:41;;;;;;;28.30;3.92;;;;;;;;;;5016635;28;20054;-22
2022/10/07 12:25:28;;;;;;;17.98;4.13;;;;;;;;;;5016852;28;20037;-21
2022/10/07 12:27:55;;;;;;;15.32;3.53;;;;;;;;;;5016669;28;20477;-25
2022/10/07 12:30:38;;;;;;;32.38;4.43;;;;;;;;;;5031961;28;20490;-27
2022/10/07 12:33:28;;;;;;;15.82;3.42;;;;;;;;;;5016250;28;20079;-27
2022/10/07 12:35:55;;;;;;;19.55;3.42;;;;;;;;;;5008978;28;20034;-23
2022/10/07 12:38:29;;;;;;;23.20;5.18;;;;;;;;;;5016241;28;20049;-22
2022/10/07 12:41:23;;;;;;;27.42;4.75;;;;;;;;;;5016655;28;20482;-22
2022/10/07 12:43:52;;;;;;;21.67;3.92;;;;;;;;;;5013923;28;20034;-21
2022/10/07 12:46:20;;;;;;;25.75;4.93;;;;;;;;;;5016529;28;20026;-22
2022/10/07 12:48:49;;;;;;;23.92;4.00;;;;;;;;;;5031730;28;20056;-24
2022/10/07 12:51:18;;;;;;;17.98;3.75;;;;;;;;;;5016068;28;20030;-23
2022/10/07 12:53:46;;;;;;;12.10;3.90;;;;;;;;;;5015983;28;20065;-30
2022/10/07 12:56:24;;;;;;;20.80;4.97;;;;;;;;;;5015874;28;20458;-23
2022/10/07 13:02:07;;;;;;;22.48;3.45;;;;;;;;;;5015942;28;20073;-22
2022/10/07 13:04:45;;;;;;;16.45;3.42;;;;;;;;;;5015743;28;20061;-22
2022/10/07 13:07:15;;;;;;;29.27;4.13;;;;;;;;;;5015842;28;20030;-22
2022/10/07 13:10:01;;;;;;;15.00;3.58;;;;;;;;;;5015727;28;20174;-23
2022/10/07 13:12:45;;;;;;;21.02;4.13;;;;;;;;;;5015899;28;20030;-22
2022/10/07 13:15:16;;;;;;;18.52;3.55;;;;;;;;;;5015644;28;20033;-21
2022/10/07 13:17:56;;;;;;;25.53;3.93;;;;;;;;;;5015729;28;20022;-22
2022/10/07 13:20:37;;;;;;;20.33;3.53;;;;;;;;;;5015885;28;20044;-22
2022/10/07 13:23:12;;;;;;;15.13;3.88;;;;;;;;;;5015508;28;20040;-22
2022/10/07 13:25:43;;;;;;;22.67;4.32;;;;;;;;;;5031050;28;20037;-23
2022/10/07 13:28:15;;;;;;;20.00;3.17;;;;;;;;;;5015914;28;20030;-22
2022/10/07 13:30:42;;;;;;;32.90;3.80;;;;;;;;;;5015537;28;20442;-22
2022/10/07 13:33:15;;;;;;;18.05;2.97;;;;;;;;;;5015405;28;20101;-21
2022/10/07 13:35:42;;;;;;;33.00;4.10;;;;;;;;;;5015951;28;20038;-22
2022/10/07 13:38:29;;;;;;;27.88;4.85;;;;;;;;;;5015335;28;20044;-25
2022/10/07 13:41:01;;;;;;;17.98;3.83;;;;;;;;;;5015219;28;20033;-21
2022/10/07 13:43:28;;;;;;;28.02;4.50;;;;;;;;;;5015474;28;20109;-24
2022/10/07 13:45:55;;;;;;;26.25;5.13;;;;;;;;;;5015263;28;20022;-21
2022/10/07 13:48:23;;;;;;;28.50;6.22;;;;;;;;;;5015135;28;20033;-23
2022/10/07 13:50:50;;;;;;;20.13;3.00;;;;;;;;;;5030643;28;20462;-21
2022/10/07 13:53:25;;;;;;;18.75;3.08;;;;;;;;;;5015026;28;20037;-21
2022/10/07 13:56:03;;;;;;;17.17;4.18;;;;;;;;;;5015142;28;20054;-23
2022/10/07 13:58:31;;;;;;;30.52;4.38;;;;;;;;;;5030529;28;20037;-27
2022/10/07 14:00:58;;;;;;;23.55;4.97;;;;;;;;;;5014956;28;20029;-23
2022/10/07 14:03:24;;;;;;;16.67;3.55;;;;;;;;;;5014842;28;20046;-22
2022/10/07 14:05:51;;;;;;;16.17;3.72;;;;;;;;;;5015083;28;20045;-23
2022/10/07 14:08:20;;;;;;;32.50;4.35;;;;;;;;;;5015431;28;20026;-22
2022/10/07 14:10:51;;;;;;;28.02;4.03;;;;;;;;;;5014773;28;20033;-22
2022/10/07 14:13:17;;;;;;;21.42;4.18;;;;;;;;;;5014672;28;20493;-23
2022/10/07 14:15:48;;;;;;;19.48;3.47;;;;;;;;;;5030213;28;20463;-21
2022/10/07 14:18:16;;;;;;;9.57;2.92;;;;;;;;;;5030233;28;20482;-21
2022/10/07 14:20:50;;;;;;;19.38;3.33;;;;;;;;;;5015147;28;20029;-22
2022/10/07 14:23:18;;;;;;;27.45;3.97;;;;;;;;;;5014104;28;20034;-22
2022/10/07 14:25:47;;;;;;;39.20;4.07;;;;;;;;;;5014830;28;20029;-21
2022/10/07 14:28:17;;;;;;;29.50;4.47;;;;;;;;;;5014583;28;20072;-25
2022/10/07 14:36:34;;;;;;;35.25;5.63;;;;;;;;;;5014899;28;20053;-22
2022/10/07 14:39:20;;;;;;;33.08;5.25;;;;;;;;;;5014522;28;20192;-21
2022/10/07 14:41:47;;;;;;;22.00;4.35;;;;;;;;;;5014734;28;20029;-21
2022/10/07 14:44:13;;;;;;;36.13;5.07;;;;;;;;;;5014836;28;20022;-21
2022/10/07 14:46:41;;;;;;;38.63;9.10;;;;;;;;;;5014512;28;20097;-22
2022/10/07 14:49:08;;;;;;;20.15;5.43;;;;;;;;;;5014806;28;20391;-21
2022/10/07 14:51:34;;;;;;;24.75;3.30;;;;;;;;;;5014830;28;20402;-24
2022/10/07 14:54:06;;;;;;;23.35;3.13;;;;;;;;;;5014420;28;20356;-21
2022/10/07 14:56:33;;;;;;;19.40;5.43;;;;;;;;;;5014448;28;20045;-22
2022/10/07 14:59:00;;;;;;;19.83;3.22;;;;;;;;;;5029828;28;20056;-22
2022/10/07 15:01:28;;;;;;;24.17;4.70;;;;;;;;;;5014363;28;20033;-22
2022/10/07 15:03:55;;;;;;;18.48;3.50;;;;;;;;;;5014239;28;20054;-23
2022/10/07 15:06:21;;;;;;;28.17;4.43;;;;;;;;;;5014468;28;20038;-22